Ihlen, Minnesota
Current Conditions -  °F | °C
As of 4:14 AM on Sunday 25 Jan 2015 (Local Time) from KPQN Reporting Station
Light Snow Light Snow  
Wind Chill: 26°   Ceiling: 500
Heat Index: 34°   Visibility: 4mi
Dew Point: 32°   Wind: 10mph
Humidity: 93%   Direction: 20°NNE
Pressure: 29.78"   Gusts: 17mph
Location:  43.91°N, 96.37°W
Report Text: KPQN 251014Z AUTO 02009G15KT 4SM -SN OVC005 01/00 A2978 RMK AO2
Loading
Personal Weather Stations






























Interactive Weather Map New forecast layout! Learn more

10-Day Weather Forecast

Advertisements
Track Severe Weather on mobile